Time;durP1;ratioP1;P1;durP2;ratioP2;P2;SDS_P1;SDS_P2;PMS_P1;PMS_P2;Temp;Humidity;BMP_temperature;BMP_pressure;BME280_temperature;BME280_humidity;BME280_pressure;Samples;Min_cycle;Max_cycle;Signal;HPM_P1;HPM_P2
2021/12/08 00:01:58;;;;;;;24.05;4.60;;;8.00;99.90;;;;;;4896228;29;20039;-66
2021/12/08 00:04:24;;;;;;;23.88;4.50;;;8.10;99.90;;;;;;4880180;29;20025;-66
2021/12/08 00:06:49;;;;;;;30.95;5.82;;;8.40;99.90;;;;;;4896673;29;20045;-67
2021/12/08 00:14:29;;;;;;;21.02;4.15;;;8.70;99.90;;;;;;4898013;29;20047;-68
2021/12/08 00:16:55;;;;;;;22.67;4.45;;;8.80;99.90;;;;;;4896520;29;20494;-67
2021/12/08 00:19:21;;;;;;;23.75;4.28;;;8.70;99.90;;;;;;4892456;29;20121;-66
2021/12/08 00:21:47;;;;;;;17.63;3.35;;;8.60;99.90;;;;;;4895968;29;20483;-65
2021/12/08 00:24:12;;;;;;;17.45;3.33;;;8.50;99.90;;;;;;4896609;29;20025;-65
2021/12/08 00:26:38;;;;;;;17.50;3.40;;;8.50;99.90;;;;;;4897799;29;20028;-66
2021/12/08 00:29:04;;;;;;;19.80;3.50;;;8.60;99.90;;;;;;4896763;29;20036;-67
2021/12/08 00:31:30;;;;;;;23.83;3.38;;;8.50;99.90;;;;;;4895824;29;20036;-66
2021/12/08 00:33:56;;;;;;;20.02;4.18;;;8.30;99.90;;;;;;4892247;29;20040;-66
2021/12/08 00:36:28;;;;;;;15.27;3.97;;;8.30;99.90;;;;;;4894945;29;20032;-66
2021/12/08 00:38:54;;;;;;;16.33;3.42;;;8.30;99.90;;;;;;4894557;29;20028;-66
2021/12/08 00:41:20;;;;;;;18.65;3.47;;;8.30;99.90;;;;;;4884645;29;20447;-66
2021/12/08 00:43:45;;;;;;;21.10;3.10;;;8.30;99.90;;;;;;4893846;29;20024;-66
2021/12/08 00:46:11;;;;;;;22.50;3.97;;;8.30;99.90;;;;;;4895415;29;20620;-66
2021/12/08 00:48:39;;;;;;;25.35;4.10;;;8.30;99.90;;;;;;4895996;29;20036;-66
2021/12/08 00:51:05;;;;;;;20.15;3.88;;;8.30;99.90;;;;;;4896004;29;20037;-67
2021/12/08 00:53:30;;;;;;;20.52;5.03;;;8.20;99.90;;;;;;4897342;29;20479;-67
2021/12/08 00:55:56;;;;;;;27.98;4.88;;;8.30;99.90;;;;;;4895794;29;20438;-66
2021/12/08 00:58:22;;;;;;;24.67;4.00;;;8.30;99.90;;;;;;4891748;29;20514;-66
2021/12/08 01:00:51;;;;;;;11.13;3.08;;;8.40;99.90;;;;;;4895410;29;20443;-67
2021/12/08 01:03:18;;;;;;;17.77;3.10;;;8.60;99.90;;;;;;4896093;29;20035;-67
2021/12/08 01:05:50;;;;;;;19.10;2.60;;;8.60;99.90;;;;;;4896187;29;20103;-68
2021/12/08 01:08:16;;;;;;;18.17;2.97;;;8.50;99.90;;;;;;4896326;29;20029;-68
2021/12/08 01:10:44;;;;;;;13.40;2.20;;;8.50;99.90;;;;;;4895341;29;20429;-68
2021/12/08 01:13:12;;;;;;;11.82;1.98;;;8.40;99.90;;;;;;4891586;29;20020;-67
2021/12/08 01:15:43;;;;;;;9.82;2.40;;;8.50;99.90;;;;;;4892393;29;20116;-67
2021/12/08 01:18:09;;;;;;;11.40;2.17;;;8.40;99.90;;;;;;4895949;29;20020;-66
2021/12/08 01:20:35;;;;;;;15.68;2.60;;;8.30;99.90;;;;;;4878365;29;20080;-66
2021/12/08 01:23:01;;;;;;;16.58;2.72;;;8.20;99.90;;;;;;4894779;29;20045;-67
2021/12/08 01:25:26;;;;;;;16.77;3.50;;;8.10;99.90;;;;;;4895336;29;20812;-67
2021/12/08 01:27:52;;;;;;;11.55;2.22;;;8.10;99.90;;;;;;4895077;29;20037;-67
2021/12/08 01:30:18;;;;;;;13.95;2.33;;;8.10;99.90;;;;;;4895928;29;20033;-67
2021/12/08 01:32:44;;;;;;;18.75;5.15;;;7.90;99.90;;;;;;4895636;29;20029;-67
2021/12/08 01:35:11;;;;;;;23.98;5.60;;;7.90;99.90;;;;;;4896405;29;20037;-66
2021/12/08 01:37:37;;;;;;;14.35;2.90;;;7.80;99.90;;;;;;4891234;29;20025;-67
2021/12/08 01:40:07;;;;;;;15.68;2.92;;;7.80;99.90;;;;;;4895226;29;20036;-66
2021/12/08 01:42:41;;;;;;;13.30;2.20;;;7.90;99.90;;;;;;4897033;29;20036;-66
2021/12/08 01:47:51;;;;;;;17.73;2.60;;;7.60;99.90;;;;;;4897750;29;20104;-66
2021/12/08 01:50:17;;;;;;;11.93;2.13;;;7.60;99.90;;;;;;4900135;29;20049;-66
2021/12/08 01:52:43;;;;;;;11.45;2.10;;;7.70;99.90;;;;;;4890676;29;20028;-66
2021/12/08 01:55:10;;;;;;;14.65;2.80;;;7.70;99.90;;;;;;4895004;29;20052;-67
2021/12/08 01:57:37;;;;;;;17.92;2.63;;;7.50;99.90;;;;;;4899123;29;20494;-66
2021/12/08 02:00:09;;;;;;;16.67;3.78;;;7.40;99.90;;;;;;4899019;29;20040;-65
2021/12/08 02:02:35;;;;;;;19.20;3.80;;;7.30;99.90;;;;;;4896208;29;20033;-66
2021/12/08 02:05:02;;;;;;;16.83;3.80;;;7.30;99.90;;;;;;4898820;29;20039;-66
2021/12/08 02:07:29;;;;;;;17.63;3.40;;;7.50;99.90;;;;;;4898930;29;20028;-66
2021/12/08 02:09:55;;;;;;;13.10;2.30;;;7.80;99.90;;;;;;4898567;29;20056;-66
2021/12/08 02:14:59;;;;;;;128.85;116.18;;;7.60;99.90;;;;;;5701025;23;20071;-61
2021/12/08 02:17:25;;;;;;;18.98;7.32;;;7.80;99.90;;;;;;4962086;23;20052;-61
2021/12/08 02:19:51;;;;;;;18.42;2.85;;;7.80;99.90;;;;;;4903555;29;20395;-60
2021/12/08 02:22:16;;;;;;;12.55;2.47;;;7.70;99.90;;;;;;4920968;29;20136;-61
2021/12/08 02:24:42;;;;;;;15.73;2.90;;;7.70;99.90;;;;;;4923357;29;20477;-60
2021/12/08 02:27:08;;;;;;;17.90;2.80;;;7.90;99.90;;;;;;4922808;29;20043;-61
2021/12/08 02:29:50;;;;;;;9.88;2.03;;;7.90;99.90;;;;;;4922579;29;20038;-61
2021/12/08 02:48:33;;;;;;;8.73;1.50;;;7.60;99.90;;;;;;4923522;29;20075;-61
2021/12/08 02:50:59;;;;;;;6.70;1.40;;;7.60;99.90;;;;;;4922032;29;20067;-61
2021/12/08 02:53:25;;;;;;;9.75;1.85;;;7.30;99.90;;;;;;4919708;29;20099;-61
2021/12/08 02:55:51;;;;;;;13.13;1.95;;;7.20;99.90;;;;;;4934258;29;20107;-60
2021/12/08 02:58:17;;;;;;;8.70;1.60;;;7.10;99.90;;;;;;4933086;29;20027;-61
2021/12/08 03:00:54;;;;;;;11.18;1.60;;;7.10;99.90;;;;;;4922855;29;20104;-61
2021/12/08 03:03:20;;;;;;;7.05;1.70;;;7.00;99.90;;;;;;4921940;29;20074;-60
2021/12/08 03:05:46;;;;;;;8.02;1.60;;;7.00;99.90;;;;;;4922016;29;20056;-59
2021/12/08 03:08:12;;;;;;;9.93;2.08;;;6.90;99.90;;;;;;4921818;29;20055;-60
2021/12/08 03:10:43;;;;;;;5.05;1.30;;;6.90;99.90;;;;;;4918350;29;20128;-61
2021/12/08 03:13:10;;;;;;;8.30;1.45;;;7.00;99.90;;;;;;4922209;29;20028;-61
2021/12/08 03:15:37;;;;;;;10.50;1.85;;;6.90;99.90;;;;;;4921401;29;20475;-60
2021/12/08 03:18:03;;;;;;;9.50;1.70;;;6.90;99.90;;;;;;4922170;29;20032;-60
2021/12/08 03:20:43;;;;;;;7.75;1.50;;;6.80;99.90;;;;;;4920707;29;20060;-61
2021/12/08 03:23:13;;;;;;;9.80;1.60;;;6.90;99.90;;;;;;4932887;29;20034;-61
2021/12/08 03:25:43;;;;;;;11.00;1.23;;;6.90;99.90;;;;;;4918173;29;20032;-59
2021/12/08 03:28:20;;;;;;;6.07;1.75;;;7.00;99.90;;;;;;4921757;29;20485;-60
2021/12/08 03:31:10;;;;;;;11.43;1.58;;;7.10;99.90;;;;;;4928394;29;20054;-60
2021/12/08 03:33:36;;;;;;;9.55;1.75;;;6.90;99.90;;;;;;4922213;29;20036;-60
2021/12/08 03:36:02;;;;;;;9.13;2.25;;;7.20;99.90;;;;;;4924546;29;20119;-60
2021/12/08 03:38:28;;;;;;;15.07;2.83;;;7.40;99.90;;;;;;4931206;29;20067;-60
2021/12/08 03:40:56;;;;;;;10.10;2.00;;;7.10;99.90;;;;;;4918501;29;20058;-60
2021/12/08 03:43:22;;;;;;;9.40;1.80;;;7.00;99.90;;;;;;4919695;29;20036;-61
2021/12/08 03:45:51;;;;;;;8.60;1.65;;;7.10;99.90;;;;;;4930383;29;20040;-61
2021/12/08 03:48:23;;;;;;;8.52;1.77;;;7.30;99.90;;;;;;4924493;29;20107;-60
2021/12/08 03:50:49;;;;;;;8.93;1.77;;;7.00;99.90;;;;;;4921028;29;20036;-60
2021/12/08 03:53:16;;;;;;;8.57;1.85;;;7.10;99.90;;;;;;4921591;29;20498;-60
2021/12/08 03:55:44;;;;;;;7.50;1.73;;;7.00;99.90;;;;;;4917583;29;20036;-61
2021/12/08 03:58:10;;;;;;;8.38;1.50;;;7.00;99.90;;;;;;4921252;29;20504;-59
2021/12/08 04:00:37;;;;;;;8.57;1.65;;;7.00;99.90;;;;;;4921030;29;20054;-60
2021/12/08 04:03:05;;;;;;;6.85;1.50;;;7.00;99.90;;;;;;4920713;29;20144;-60
2021/12/08 04:05:54;;;;;;;7.35;1.30;;;6.90;99.90;;;;;;4920936;29;20094;-61
2021/12/08 04:08:40;;;;;;;7.38;1.23;;;6.80;99.90;;;;;;4918404;29;20042;-59
2021/12/08 04:11:10;;;;;;;5.82;1.33;;;6.80;99.90;;;;;;4930177;29;20035;-60
2021/12/08 04:14:06;;;;;;;6.97;1.80;;;6.90;99.90;;;;;;4932207;29;20035;-60
2021/12/08 04:16:40;;;;;;;4.38;1.75;;;6.80;99.90;;;;;;4933810;29;20056;-61
2021/12/08 04:19:07;;;;;;;6.50;1.48;;;6.80;99.90;;;;;;4920862;29;20030;-60
2021/12/08 04:21:34;;;;;;;4.95;1.55;;;6.90;99.90;;;;;;4920439;29;20039;-60
2021/12/08 04:24:00;;;;;;;5.70;1.15;;;7.10;99.90;;;;;;4920916;29;20168;-60
2021/12/08 04:26:41;;;;;;;4.70;1.48;;;7.00;99.90;;;;;;4920892;29;20095;-60
2021/12/08 04:29:09;;;;;;;6.25;1.30;;;6.80;99.90;;;;;;4918966;29;20039;-60
2021/12/08 04:31:36;;;;;;;5.07;1.30;;;6.80;99.90;;;;;;4917804;29;20389;-60
2021/12/08 04:34:06;;;;;;;5.95;1.10;;;6.80;99.90;;;;;;4920923;29;20041;-61
2021/12/08 04:36:41;;;;;;;4.78;1.20;;;6.60;99.90;;;;;;4920654;29;20514;-59
2021/12/08 04:39:13;;;;;;;7.97;1.50;;;6.80;99.90;;;;;;4920622;29;20051;-60
2021/12/08 04:41:45;;;;;;;6.10;1.20;;;6.90;99.90;;;;;;4920547;29;20028;-59
2021/12/08 04:52:17;;;;;;;8.75;1.40;;;6.60;99.90;;;;;;4930093;29;20050;-59
2021/12/08 05:03:19;;;;;;;5.65;1.35;;;6.40;99.90;;;;;;4920478;29;20040;-61
2021/12/08 05:08:42;;;;;;;5.32;1.20;;;6.40;99.90;;;;;;4920554;29;20086;-61
2021/12/08 05:11:28;;;;;;;3.05;1.30;;;6.30;99.90;;;;;;4918898;29;20544;-61
2021/12/08 05:14:35;;;;;;;6.35;1.10;;;6.40;99.90;;;;;;4917041;29;20064;-60
2021/12/08 05:17:07;;;;;;;4.63;1.40;;;6.30;99.90;;;;;;4873876;29;20052;-61
2021/12/08 05:19:34;;;;;;;6.72;1.27;;;6.20;99.90;;;;;;4874938;29;20033;-59
2021/12/08 05:22:25;;;;;;;5.78;1.27;;;6.10;99.90;;;;;;4876290;29;20045;-60
2021/12/08 05:24:54;;;;;;;4.75;1.23;;;6.20;99.90;;;;;;4874852;29;20450;-61
2021/12/08 05:27:26;;;;;;;4.70;1.30;;;6.10;99.90;;;;;;4874247;29;20045;-60
2021/12/08 05:30:06;;;;;;;5.22;1.67;;;6.20;99.90;;;;;;4874638;29;20045;-60
2021/12/08 05:32:33;;;;;;;9.82;1.73;;;6.30;99.90;;;;;;4874728;29;20068;-60
2021/12/08 05:34:58;;;;;;;6.65;1.60;;;6.20;99.90;;;;;;4874523;29;20044;-60
2021/12/08 05:37:25;;;;;;;9.65;1.42;;;6.10;99.90;;;;;;4874948;29;20663;-61
2021/12/08 05:39:52;;;;;;;6.13;1.23;;;6.00;99.90;;;;;;4876144;29;20534;-60
2021/12/08 05:42:22;;;;;;;6.97;1.40;;;6.20;99.90;;;;;;4874067;29;20041;-61
2021/12/08 05:44:49;;;;;;;6.18;1.50;;;6.60;99.90;;;;;;4874318;29;20100;-60
2021/12/08 05:47:19;;;;;;;8.93;1.67;;;6.40;99.90;;;;;;4874477;29;20037;-61
2021/12/08 05:49:45;;;;;;;6.03;1.20;;;6.30;99.90;;;;;;4860128;29;20165;-60
2021/12/08 05:52:11;;;;;;;5.15;1.05;;;6.40;99.90;;;;;;4875698;29;20077;-61
2021/12/08 05:54:41;;;;;;;5.68;1.25;;;6.50;99.90;;;;;;4926925;29;20040;-61
2021/12/08 05:57:15;;;;;;;7.57;1.40;;;6.50;99.90;;;;;;4923924;29;20032;-61
2021/12/08 05:59:42;;;;;;;3.40;1.00;;;6.40;99.90;;;;;;4919193;29;20163;-60
2021/12/08 06:02:24;;;;;;;8.20;1.42;;;6.30;99.90;;;;;;4918297;29;20031;-60
2021/12/08 06:04:50;;;;;;;10.68;1.52;;;6.40;99.90;;;;;;4916305;29;20028;-61
2021/12/08 06:07:21;;;;;;;7.30;1.45;;;6.50;99.90;;;;;;4919072;29;20151;-60
2021/12/08 06:09:48;;;;;;;7.78;1.30;;;6.50;99.90;;;;;;4919591;29;20036;-61
2021/12/08 06:12:13;;;;;;;9.45;1.70;;;6.50;99.90;;;;;;4923858;29;20054;-60
2021/12/08 06:14:39;;;;;;;6.93;1.95;;;6.60;99.90;;;;;;4927765;29;20504;-60
2021/12/08 06:17:15;;;;;;;5.25;1.52;;;6.70;99.90;;;;;;4930330;29;20175;-60
2021/12/08 06:19:43;;;;;;;7.70;1.63;;;6.80;99.90;;;;;;4915754;29;20404;-60
2021/12/08 06:22:11;;;;;;;6.43;1.40;;;6.70;99.90;;;;;;4919244;29;20400;-60
2021/12/08 06:24:38;;;;;;;6.55;1.45;;;6.70;99.90;;;;;;4919459;29;20140;-58
2021/12/08 06:27:04;;;;;;;11.07;2.10;;;6.90;99.90;;;;;;4918913;29;20536;-61
2021/12/08 06:29:30;;;;;;;9.13;2.13;;;6.80;99.90;;;;;;4922149;29;20114;-61
2021/12/08 06:31:58;;;;;;;13.18;2.15;;;6.70;99.90;;;;;;4920369;29;20070;-61
2021/12/08 06:34:25;;;;;;;12.80;4.90;;;7.00;99.90;;;;;;4920563;29;20029;-61
2021/12/08 06:36:55;;;;;;;9.70;2.80;;;7.20;99.90;;;;;;4922990;29;20028;-61
2021/12/08 06:39:25;;;;;;;14.25;2.60;;;7.10;99.90;;;;;;4922464;29;20056;-61
2021/12/08 06:41:56;;;;;;;8.43;2.25;;;6.80;99.90;;;;;;4922879;29;20027;-61
2021/12/08 06:44:27;;;;;;;11.00;2.90;;;6.70;99.90;;;;;;4922412;29;20031;-60
2021/12/08 06:46:53;;;;;;;10.48;4.30;;;6.50;99.90;;;;;;4917616;29;20028;-60
2021/12/08 06:49:20;;;;;;;12.80;5.57;;;6.60;99.90;;;;;;4921043;29;20028;-61
2021/12/08 06:52:04;;;;;;;18.10;5.22;;;6.80;99.90;;;;;;4931236;29;20090;-60
2021/12/08 06:54:37;;;;;;;16.80;3.92;;;6.50;99.90;;;;;;4924052;29;20031;-61
2021/12/08 06:57:11;;;;;;;14.02;3.17;;;6.70;99.90;;;;;;4922257;29;20044;-60
2021/12/08 06:59:51;;;;;;;9.65;2.92;;;6.70;99.90;;;;;;4922430;29;20107;-60
2021/12/08 07:02:35;;;;;;;6.68;1.50;;;6.50;99.90;;;;;;4922527;29;20035;-60
2021/12/08 07:05:13;;;;;;;6.28;2.00;;;6.40;99.90;;;;;;4919779;29;20031;-60
2021/12/08 07:07:42;;;;;;;7.38;1.80;;;6.50;99.90;;;;;;4918277;29;20051;-60
2021/12/08 07:10:14;;;;;;;6.72;1.90;;;6.60;99.90;;;;;;4932691;29;20038;-60
2021/12/08 07:12:45;;;;;;;9.00;2.00;;;6.50;99.90;;;;;;4922104;29;20044;-60
2021/12/08 07:15:19;;;;;;;7.00;1.67;;;6.40;99.90;;;;;;4925947;29;20027;-59
2021/12/08 07:17:50;;;;;;;6.78;2.08;;;6.50;99.90;;;;;;4929483;29;20044;-59
2021/12/08 07:20:43;;;;;;;5.45;1.63;;;6.60;99.90;;;;;;4930494;29;20032;-60
2021/12/08 07:23:18;;;;;;;10.52;1.77;;;6.60;99.90;;;;;;4920254;29;20032;-60
2021/12/08 07:25:45;;;;;;;9.45;2.00;;;6.50;99.90;;;;;;4918400;29;20036;-60
2021/12/08 07:28:12;;;;;;;10.57;1.80;;;6.40;99.90;;;;;;4928732;29;20052;-59
2021/12/08 07:30:45;;;;;;;9.75;2.50;;;6.30;99.90;;;;;;4921378;29;20060;-60
2021/12/08 07:33:11;;;;;;;8.20;2.05;;;6.20;99.90;;;;;;4925343;29;20019;-61
2021/12/08 07:35:44;;;;;;;11.15;3.70;;;6.20;99.90;;;;;;4930113;29;20031;-59
2021/12/08 07:38:14;;;;;;;12.55;5.50;;;6.30;99.90;;;;;;4919870;29;20063;-60
2021/12/08 07:40:49;;;;;;;9.23;3.45;;;6.40;99.90;;;;;;4917735;29;20044;-60
2021/12/08 07:43:20;;;;;;;8.48;2.38;;;6.30;99.90;;;;;;4932456;29;20424;-60
2021/12/08 07:45:50;;;;;;;12.45;2.25;;;6.30;99.90;;;;;;4916782;29;20513;-60
2021/12/08 07:48:22;;;;;;;10.60;2.30;;;6.00;99.90;;;;;;4921827;29;20497;-60
2021/12/08 07:50:54;;;;;;;10.35;2.65;;;5.80;99.90;;;;;;4921486;29;20066;-60
2021/12/08 07:53:24;;;;;;;7.65;2.50;;;5.90;99.90;;;;;;4921089;29;20024;-60
2021/12/08 07:55:54;;;;;;;10.77;2.70;;;6.10;99.90;;;;;;4917352;29;20031;-60
2021/12/08 07:58:21;;;;;;;7.53;2.38;;;5.90;99.90;;;;;;4920187;29;20024;-60
2021/12/08 08:00:53;;;;;;;6.07;2.10;;;5.90;99.90;;;;;;4921664;29;20071;-60
2021/12/08 08:03:21;;;;;;;4.00;1.88;;;6.00;99.90;;;;;;4921256;29;20032;-60
2021/12/08 08:05:49;;;;;;;6.68;2.00;;;5.90;99.90;;;;;;4921330;29;20039;-60
2021/12/08 08:08:18;;;;;;;8.05;2.08;;;6.20;99.90;;;;;;4929693;29;20032;-60
2021/12/08 08:10:52;;;;;;;8.07;2.60;;;6.30;99.90;;;;;;4932452;29;20074;-60
2021/12/08 08:13:21;;;;;;;8.50;3.85;;;6.10;99.90;;;;;;4931678;29;20028;-60
2021/12/08 08:15:52;;;;;;;10.70;3.63;;;6.10;99.90;;;;;;4921147;29;20051;-60
2021/12/08 08:18:23;;;;;;;8.48;4.30;;;6.00;99.90;;;;;;4921062;29;20397;-59
2021/12/08 08:20:52;;;;;;;11.25;3.33;;;6.10;99.90;;;;;;4920480;29;20047;-59
2021/12/08 08:23:21;;;;;;;9.30;3.42;;;6.20;99.90;;;;;;4902543;29;20028;-60
2021/12/08 08:25:50;;;;;;;11.13;4.03;;;6.00;99.90;;;;;;4916423;29;20067;-60
2021/12/08 08:28:17;;;;;;;13.20;3.67;;;6.20;99.90;;;;;;4915399;29;20180;-60
2021/12/08 08:30:48;;;;;;;13.10;3.55;;;6.40;99.90;;;;;;4929652;29;20555;-60
2021/12/08 08:33:14;;;;;;;11.43;3.92;;;6.60;99.90;;;;;;4924309;29;20489;-60
2021/12/08 08:35:50;;;;;;;10.48;3.60;;;6.60;99.90;;;;;;4920272;29;20111;-59
2021/12/08 08:38:24;;;;;;;9.77;3.33;;;6.60;99.90;;;;;;4919697;29;20032;-59
2021/12/08 08:41:04;;;;;;;9.02;3.58;;;6.70;99.90;;;;;;4916558;29;20032;-58
2021/12/08 08:43:30;;;;;;;11.98;4.07;;;6.70;99.90;;;;;;4917832;29;20072;-58
2021/12/08 08:46:00;;;;;;;10.60;3.28;;;6.60;99.90;;;;;;4920296;29;20036;-58
2021/12/08 08:48:42;;;;;;;13.25;3.40;;;6.80;99.90;;;;;;4920158;29;20413;-59
2021/12/08 08:51:14;;;;;;;17.10;5.40;;;7.00;99.90;;;;;;4919729;29;20041;-58
2021/12/08 08:53:43;;;;;;;12.35;5.35;;;7.00;99.90;;;;;;4919826;29;20039;-59
2021/12/08 08:56:25;;;;;;;15.57;4.07;;;7.10;99.90;;;;;;4918782;29;20107;-58
2021/12/08 08:58:57;;;;;;;12.73;3.42;;;7.20;99.90;;;;;;4916806;29;20103;-58
2021/12/08 09:01:31;;;;;;;15.57;2.70;;;7.30;99.90;;;;;;4918014;29;20032;-59
2021/12/08 09:04:04;;;;;;;19.77;3.28;;;7.60;99.90;;;;;;4915391;29;20613;-59
2021/12/08 09:06:37;;;;;;;13.17;2.63;;;7.70;99.90;;;;;;4926271;29;20032;-58
2021/12/08 09:09:07;;;;;;;10.30;2.37;;;7.30;99.90;;;;;;4927594;29;20036;-59
2021/12/08 09:11:38;;;;;;;6.68;1.60;;;7.10;99.90;;;;;;4928317;29;20031;-59
2021/12/08 09:14:16;;;;;;;3.65;1.25;;;7.10;99.90;;;;;;4918279;29;20028;-59
2021/12/08 09:17:16;;;;;;;2.60;1.10;;;6.90;99.90;;;;;;4916028;29;20082;-59
2021/12/08 09:19:52;;;;;;;4.05;0.90;;;6.80;99.90;;;;;;4931028;29;20436;-58
2021/12/08 09:22:54;;;;;;;5.20;1.17;;;6.80;99.90;;;;;;4930039;29;20024;-58
2021/12/08 09:25:33;;;;;;;4.20;1.13;;;6.90;99.90;;;;;;4930248;29;20120;-60
2021/12/08 09:28:11;;;;;;;2.50;1.13;;;6.70;99.90;;;;;;4919946;29;20605;-59
2021/12/08 09:30:58;;;;;;;4.55;2.15;;;6.80;99.90;;;;;;4918375;29;20046;-59
2021/12/08 09:33:27;;;;;;;9.35;3.17;;;6.80;99.90;;;;;;4919009;29;20032;-59
2021/12/08 09:36:00;;;;;;;9.32;3.30;;;6.70;99.90;;;;;;4921481;29;20031;-60
2021/12/08 09:38:55;;;;;;;8.70;3.33;;;6.70;99.90;;;;;;4929507;29;20087;-60
2021/12/08 09:41:25;;;;;;;;;;;6.80;99.90;;;;;;4923039;29;20039;-59
2021/12/08 09:44:00;;;;;;;5.93;2.67;;;7.10;99.90;;;;;;4916082;29;19911;-59
2021/12/08 09:46:33;;;;;;;7.15;2.58;;;7.10;99.90;;;;;;4917129;29;20111;-59
2021/12/08 09:49:00;;;;;;;7.40;2.60;;;7.00;99.90;;;;;;4918820;29;20021;-59
2021/12/08 09:51:27;;;;;;;4.80;1.95;;;7.30;99.90;;;;;;4919021;29;20068;-60
2021/12/08 09:53:54;;;;;;;3.88;2.00;;;7.90;99.90;;;;;;4919235;29;20032;-60
2021/12/08 09:56:22;;;;;;;5.53;1.55;;;8.10;99.90;;;;;;4920085;29;20416;-60
2021/12/08 09:58:48;;;;;;;5.28;1.90;;;8.50;99.90;;;;;;4915585;29;20023;-60
2021/12/08 10:01:18;;;;;;;5.53;2.00;;;10.20;99.90;;;;;;4934181;29;20518;-59
2021/12/08 10:03:46;;;;;;;8.38;3.42;;;10.30;99.90;;;;;;4929480;29;20568;-60
2021/12/08 10:06:12;;;;;;;5.43;1.48;;;10.00;99.90;;;;;;4927036;29;20531;-59
2021/12/08 10:08:40;;;;;;;5.40;1.30;;;9.50;99.90;;;;;;4923001;29;20576;-60
2021/12/08 10:11:06;;;;;;;5.63;1.40;;;9.00;99.90;;;;;;4921359;29;20066;-59
2021/12/08 10:13:31;;;;;;;9.77;2.00;;;8.80;99.90;;;;;;4920675;29;20064;-60
2021/12/08 10:15:57;;;;;;;5.28;1.75;;;8.50;99.90;;;;;;4933173;29;20035;-59
2021/12/08 10:18:23;;;;;;;5.15;1.58;;;8.40;99.90;;;;;;4925313;29;20063;-60
2021/12/08 10:20:51;;;;;;;6.20;1.90;;;8.30;99.90;;;;;;4923854;29;20031;-60
2021/12/08 10:23:19;;;;;;;9.48;2.17;;;8.10;99.90;;;;;;4933951;29;20031;-60
2021/12/08 10:25:58;;;;;;;10.38;1.73;;;8.00;99.90;;;;;;4919300;29;20044;-60
2021/12/08 10:28:39;;;;;;;6.30;2.40;;;7.90;99.90;;;;;;4933399;29;20384;-59
2021/12/08 10:31:14;;;;;;;7.78;1.52;;;7.80;99.90;;;;;;4922477;29;20032;-61
2021/12/08 10:34:04;;;;;;;8.10;1.55;;;7.80;99.90;;;;;;4922445;29;20051;-61
2021/12/08 10:36:47;;;;;;;6.20;2.10;;;7.70;99.90;;;;;;4922884;29;20067;-61
2021/12/08 10:39:15;;;;;;;20.65;18.75;;;7.60;99.90;;;;;;4922972;29;20032;-60
2021/12/08 10:41:45;;;;;;;13.25;2.70;;;7.70;99.90;;;;;;4922492;29;20040;-61
2021/12/08 10:44:11;;;;;;;7.95;1.92;;;7.90;99.90;;;;;;4919361;29;20032;-60
2021/12/08 10:46:38;;;;;;;10.15;2.58;;;7.90;99.90;;;;;;4933636;29;20110;-61
2021/12/08 10:54:45;;;;;;;10.18;2.92;;;7.80;99.90;;;;;;4911674;29;20051;-60
2021/12/08 10:57:24;;;;;;;7.70;1.92;;;7.80;99.90;;;;;;4910409;29;20437;-61
2021/12/08 11:00:09;;;;;;;9.68;2.08;;;7.70;99.90;;;;;;4910061;29;20498;-60
2021/12/08 11:02:39;;;;;;;8.60;1.90;;;7.60;99.90;;;;;;4910091;29;20173;-61
2021/12/08 11:05:24;;;;;;;7.57;1.88;;;7.60;99.90;;;;;;4912584;29;20040;-61
2021/12/08 11:08:02;;;;;;;10.68;2.97;;;7.50;99.90;;;;;;4899798;29;20126;-60
2021/12/08 11:10:30;;;;;;;11.25;4.40;;;7.40;99.90;;;;;;4912231;29;20043;-61
2021/12/08 11:12:58;;;;;;;11.57;3.80;;;7.40;99.90;;;;;;4911184;29;20120;-61
2021/12/08 11:15:26;;;;;;;9.63;3.45;;;7.30;99.90;;;;;;4908314;29;20039;-63
2021/12/08 11:18:14;;;;;;;12.55;2.80;;;7.40;99.90;;;;;;4909800;29;20029;-61
2021/12/08 11:20:45;;;;;;;8.13;2.25;;;7.40;99.90;;;;;;4910439;29;20036;-61
2021/12/08 11:23:15;;;;;;;14.07;2.72;;;7.50;99.90;;;;;;4911087;29;20041;-61
2021/12/08 11:25:50;;;;;;;11.43;2.40;;;7.50;99.90;;;;;;4912458;29;20485;-60
2021/12/08 11:28:30;;;;;;;9.80;2.33;;;7.70;99.90;;;;;;4911678;29;20060;-60
2021/12/08 11:31:20;;;;;;;9.20;1.90;;;7.70;99.90;;;;;;4920906;29;20091;-60
2021/12/08 11:33:54;;;;;;;6.03;1.75;;;7.60;99.90;;;;;;4930375;29;20035;-61
2021/12/08 11:36:24;;;;;;;6.15;2.13;;;7.60;99.90;;;;;;4924643;29;20036;-61
2021/12/08 11:38:50;;;;;;;7.68;1.80;;;7.50;99.90;;;;;;4921952;29;20047;-60
2021/12/08 11:41:25;;;;;;;5.43;1.88;;;7.50;99.90;;;;;;4919982;29;20039;-60
2021/12/08 11:43:56;;;;;;;8.27;1.67;;;7.40;99.90;;;;;;4917004;29;20122;-60
2021/12/08 11:46:23;;;;;;;4.75;1.52;;;7.50;99.90;;;;;;4919153;29;20060;-61
2021/12/08 11:49:04;;;;;;;6.43;2.30;;;7.50;99.90;;;;;;4921607;29;20036;-61
2021/12/08 11:51:58;;;;;;;5.55;1.80;;;7.50;99.90;;;;;;4920826;29;20394;-61
2021/12/08 11:54:26;;;;;;;5.40;2.05;;;7.50;99.90;;;;;;4915453;29;20040;-61
2021/12/08 11:56:52;;;;;;;7.10;2.13;;;7.60;99.90;;;;;;4921127;29;20040;-62
2021/12/08 11:59:18;;;;;;;4.82;1.20;;;7.60;99.90;;;;;;4918056;29;20027;-61
2021/12/08 12:01:47;;;;;;;4.82;1.52;;;7.40;99.90;;;;;;4933117;29;20116;-61
2021/12/08 12:04:13;;;;;;;7.78;2.40;;;7.30;99.90;;;;;;4931709;29;20432;-61
2021/12/08 12:06:39;;;;;;;7.90;2.53;;;7.20;99.90;;;;;;4929217;29;20031;-61
2021/12/08 12:09:08;;;;;;;15.13;6.97;;;7.20;99.90;;;;;;4926254;29;20067;-62
2021/12/08 12:11:34;;;;;;;8.10;2.78;;;7.20;99.90;;;;;;4919657;29;20126;-62
2021/12/08 12:14:00;;;;;;;9.93;2.75;;;7.30;99.90;;;;;;4932006;29;20028;-62
2021/12/08 12:16:27;;;;;;;11.35;3.20;;;7.20;99.90;;;;;;4922276;29;20067;-62
2021/12/08 12:19:02;;;;;;;9.60;1.90;;;7.20;99.90;;;;;;4930588;29;20043;-61
2021/12/08 12:21:45;;;;;;;6.85;2.30;;;7.20;99.90;;;;;;4922895;29;20039;-62
2021/12/08 12:24:23;;;;;;;14.37;5.13;;;7.20;99.90;;;;;;4908994;29;20038;-61
2021/12/08 12:27:04;;;;;;;12.10;4.47;;;7.40;99.90;;;;;;4927436;29;20024;-62
2021/12/08 12:29:48;;;;;;;6.07;1.42;;;7.40;99.90;;;;;;4918773;29;20039;-62
2021/12/08 12:32:22;;;;;;;5.55;1.63;;;7.40;99.90;;;;;;4931808;29;20059;-60
2021/12/08 12:34:53;;;;;;;7.25;2.90;;;7.60;99.90;;;;;;4917544;29;20052;-61
2021/12/08 12:37:30;;;;;;;13.00;3.53;;;7.90;99.90;;;;;;4931034;29;20035;-64
2021/12/08 12:40:03;;;;;;;7.10;2.30;;;8.20;99.90;;;;;;4930433;29;20167;-63
2021/12/08 12:42:46;;;;;;;7.05;2.50;;;8.30;99.90;;;;;;4927501;29;20043;-62
2021/12/08 12:45:14;;;;;;;5.67;2.60;;;8.40;99.90;;;;;;4928209;29;20370;-61
2021/12/08 12:47:40;;;;;;;8.20;2.63;;;8.50;99.90;;;;;;4928892;29;20279;-62
2021/12/08 12:50:18;;;;;;;7.85;2.05;;;8.50;99.90;;;;;;4918591;29;20522;-62
2021/12/08 12:52:48;;;;;;;8.90;1.75;;;8.70;99.90;;;;;;4916993;29;20440;-62
2021/12/08 12:55:16;;;;;;;9.00;2.90;;;8.70;99.90;;;;;;4930918;29;20027;-61
2021/12/08 12:57:59;;;;;;;6.65;2.75;;;8.80;99.90;;;;;;4920058;29;20051;-62
2021/12/08 13:00:28;;;;;;;5.97;2.08;;;8.90;99.90;;;;;;4920040;29;20043;-62
2021/12/08 13:02:54;;;;;;;5.72;2.22;;;8.50;99.90;;;;;;4905792;29;20040;-61
2021/12/08 13:05:20;;;;;;;8.88;2.53;;;8.70;99.90;;;;;;4920017;29;20038;-62
2021/12/08 13:07:59;;;;;;;9.25;2.22;;;8.90;99.90;;;;;;4916238;29;20040;-62
2021/12/08 13:10:39;;;;;;;6.80;2.30;;;9.20;99.90;;;;;;4930542;29;20651;-62
2021/12/08 13:13:14;;;;;;;6.05;1.88;;;9.30;99.90;;;;;;4931202;29;20039;-62
2021/12/08 13:15:44;;;;;;;12.18;3.00;;;9.20;99.90;;;;;;4920177;29;20020;-62
2021/12/08 13:18:15;;;;;;;8.95;2.10;;;9.30;99.90;;;;;;4919758;29;20036;-61
2021/12/08 13:20:46;;;;;;;9.73;2.60;;;9.40;99.90;;;;;;4919847;29;20485;-62
2021/12/08 13:23:14;;;;;;;9.63;3.00;;;9.40;99.90;;;;;;4930975;29;20038;-62
2021/12/08 13:25:50;;;;;;;9.38;2.20;;;9.40;99.90;;;;;;4916087;29;20533;-62
2021/12/08 13:28:23;;;;;;;10.45;2.03;;;9.70;99.90;;;;;;4930405;29;20388;-62
2021/12/08 13:30:51;;;;;;;;;;;9.90;99.90;;;;;;4920676;29;20441;-61
2021/12/08 13:33:52;;;;;;;42.67;32.45;;;10.10;99.90;;;;;;4919955;29;19917;-62
2021/12/08 13:36:21;;;;;;;21.98;16.27;;;10.20;99.90;;;;;;4912648;29;20048;-61
2021/12/08 13:38:59;;;;;;;41.03;33.47;;;10.30;99.90;;;;;;4924366;29;20036;-62
2021/12/08 13:41:28;;;;;;;13.00;6.85;;;10.10;99.90;;;;;;4925542;29;20024;-62
2021/12/08 13:43:54;;;;;;;29.40;24.13;;;9.90;99.90;;;;;;4923623;29;20040;-62
2021/12/08 13:46:42;;;;;;;19.75;15.18;;;9.60;99.90;;;;;;4936643;29;20070;-61
2021/12/08 13:49:26;;;;;;;19.30;9.98;;;9.50;99.90;;;;;;4925976;29;20065;-61
2021/12/08 13:52:14;;;;;;;17.00;9.63;;;9.60;99.90;;;;;;4935358;29;20069;-62
2021/12/08 13:54:48;;;;;;;10.07;2.80;;;9.90;99.90;;;;;;4925963;29;20051;-61
2021/12/08 13:57:35;;;;;;;87.85;72.85;;;9.90;99.90;;;;;;4925886;29;20068;-61
2021/12/08 14:00:15;;;;;;;30.13;18.45;;;9.70;99.90;;;;;;4928593;29;20031;-62
2021/12/08 14:02:51;;;;;;;15.90;10.75;;;9.60;99.90;;;;;;4934104;29;20035;-62
2021/12/08 14:05:23;;;;;;;37.80;23.92;;;9.50;99.90;;;;;;4925444;29;20036;-62
2021/12/08 14:07:55;;;;;;;54.92;42.17;;;9.60;99.90;;;;;;4921807;29;20035;-62